createdAt,value
2023-04-21T00:00:58.859Z,7.98
2023-04-21T00:06:30.614Z,8.05
2023-04-21T00:12:02.483Z,8.0
2023-04-21T00:17:34.328Z,7.93
2023-04-21T00:23:05.946Z,7.81
2023-04-21T00:28:37.672Z,7.78
2023-04-21T00:34:09.488Z,7.95
2023-04-21T00:39:41.140Z,7.95
2023-04-21T00:45:12.631Z,8.04
2023-04-21T00:50:44.455Z,7.95
2023-04-21T00:56:20.744Z,7.91
2023-04-21T01:01:52.256Z,7.89
2023-04-21T01:07:23.942Z,7.73
2023-04-21T01:12:55.922Z,7.75
2023-04-21T01:18:27.649Z,7.93
2023-04-21T01:23:59.129Z,7.82
2023-04-21T01:29:31.100Z,7.8
2023-04-21T01:35:02.578Z,7.78
2023-04-21T01:40:34.564Z,7.69
2023-04-21T01:46:06.228Z,7.61
2023-04-21T01:51:37.932Z,7.59
2023-04-21T01:57:13.889Z,7.53
2023-04-21T02:02:45.663Z,7.48
2023-04-21T02:08:17.578Z,7.37
2023-04-21T02:13:49.050Z,7.28
2023-04-21T02:19:21.327Z,7.16
2023-04-21T02:24:52.728Z,7.05
2023-04-21T02:30:24.515Z,7.07
2023-04-21T02:35:55.952Z,7.05
2023-04-21T02:41:27.856Z,6.89
2023-04-21T02:46:59.704Z,6.82
2023-04-21T02:52:31.082Z,6.76
2023-04-21T02:58:07.237Z,6.67
2023-04-21T03:03:38.998Z,6.71
2023-04-21T03:09:10.894Z,6.69
2023-04-21T03:14:42.429Z,6.58
2023-04-21T03:20:14.602Z,6.62
2023-04-21T03:25:45.909Z,6.66
2023-04-21T03:31:17.817Z,6.73
2023-04-21T03:36:49.248Z,6.74
2023-04-21T03:42:21.171Z,6.67
2023-04-21T03:47:52.965Z,6.56
2023-04-21T03:53:24.431Z,6.48
2023-04-21T03:59:02.810Z,6.34
2023-04-21T04:04:34.583Z,6.39
2023-04-21T04:10:06.279Z,6.43
2023-04-21T04:15:38.036Z,6.31
2023-04-21T04:21:09.484Z,6.29
2023-04-21T04:26:41.126Z,6.32
2023-04-21T04:32:13.180Z,6.3
2023-04-21T04:37:45.434Z,6.38
2023-04-21T04:43:16.380Z,6.36
2023-04-21T04:48:48.042Z,6.49
2023-04-21T04:54:20.096Z,6.51
2023-04-21T04:59:57.923Z,6.34
2023-04-21T05:05:29.783Z,6.57
2023-04-21T05:11:01.675Z,6.53
2023-04-21T05:16:33.080Z,6.53
2023-04-21T05:22:04.946Z,6.58
2023-04-21T05:27:36.519Z,6.68
2023-04-21T05:33:08.544Z,6.57
2023-04-21T05:38:40.203Z,6.71
2023-04-21T05:44:11.654Z,6.88
2023-04-21T05:49:43.706Z,6.91
2023-04-21T05:55:15.399Z,7.02
2023-04-21T06:00:51.402Z,6.95
2023-04-21T06:06:23.248Z,7.0
2023-04-21T06:11:54.947Z,7.1
2023-04-21T06:17:27.307Z,7.31
2023-04-21T06:22:58.168Z,7.47
2023-04-21T06:28:30.090Z,7.5
2023-04-21T06:34:01.808Z,7.51
2023-04-21T06:39:33.343Z,7.82
2023-04-21T06:45:05.059Z,7.85
2023-04-21T06:50:37.327Z,7.91
2023-04-21T06:56:08.495Z,7.93
2023-04-21T07:01:44.654Z,7.69
2023-04-21T07:07:16.303Z,7.9
2023-04-21T07:12:55.069Z,8.74
2023-04-21T07:18:26.566Z,8.88
2023-04-21T07:23:58.769Z,8.69
2023-04-21T07:29:30.222Z,9.04
2023-04-21T07:35:01.801Z,9.14
2023-04-21T07:40:33.481Z,9.33
2023-04-21T07:46:05.567Z,9.21
2023-04-21T07:51:36.947Z,9.64
2023-04-21T07:57:08.903Z,9.71
2023-04-21T08:02:45.097Z,9.94
2023-04-21T08:08:16.712Z,10.34
2023-04-21T08:13:48.520Z,10.47
2023-04-21T08:19:20.629Z,10.8
2023-04-21T08:24:52.459Z,11.18
2023-04-21T08:30:23.516Z,11.34
2023-04-21T08:36:04.204Z,11.64
2023-04-21T08:41:27.286Z,11.96
2023-04-21T08:46:58.785Z,12.24
2023-04-21T08:52:30.228Z,12.15
2023-04-21T08:58:02.112Z,12.74
2023-04-21T09:03:38.496Z,12.88
2023-04-21T09:09:10.064Z,13.03
2023-04-21T09:14:41.567Z,13.14
2023-04-21T09:20:13.321Z,13.06
2023-04-21T09:25:45.266Z,13.5
2023-04-21T09:31:17.403Z,13.57
2023-04-21T09:36:48.458Z,14.04
2023-04-21T09:42:20.588Z,14.34
2023-04-21T09:47:52.276Z,14.15
2023-04-21T09:53:24.165Z,13.99
2023-04-21T09:58:55.664Z,14.33
2023-04-21T10:04:33.605Z,14.69
2023-04-21T10:10:05.473Z,14.96
2023-04-21T10:15:37.187Z,14.51
2023-04-21T10:21:08.939Z,14.78
2023-04-21T10:26:41.001Z,15.41
2023-04-21T10:32:12.221Z,15.16
2023-04-21T10:37:44.156Z,15.18
2023-04-21T10:43:15.780Z,15.62
2023-04-21T10:48:47.284Z,15.95
2023-04-21T10:54:19.320Z,15.69
2023-04-21T10:59:50.704Z,15.91
2023-04-21T11:05:27.319Z,16.21
2023-04-21T11:10:58.812Z,16.29
2023-04-21T11:16:30.555Z,16.67
2023-04-21T11:22:02.004Z,16.46
2023-04-21T11:27:33.964Z,16.9
2023-04-21T11:33:05.794Z,16.97
2023-04-21T11:38:37.144Z,17.06
2023-04-21T11:44:09.153Z,17.6
2023-04-21T11:49:40.925Z,17.15
2023-04-21T11:55:12.332Z,17.42
2023-04-21T12:00:44.661Z,17.47
2023-04-21T12:06:20.424Z,17.65
2023-04-21T12:11:51.865Z,18.05
2023-04-21T12:17:23.942Z,17.9
2023-04-21T12:22:55.342Z,18.18
2023-04-21T12:28:27.305Z,18.48
2023-04-21T12:33:59.163Z,18.34
2023-04-21T12:39:30.761Z,18.44
2023-04-21T12:45:02.249Z,18.41
2023-04-21T12:50:33.929Z,18.2
2023-04-21T12:56:05.965Z,18.63
2023-04-21T13:01:37.405Z,18.95
2023-04-21T13:07:13.515Z,18.88
2023-04-21T13:12:45.790Z,18.53
2023-04-21T13:18:16.939Z,19.25
2023-04-21T13:23:49.345Z,19.2
2023-04-21T13:29:20.658Z,19.14
2023-04-21T13:34:52.481Z,19.23
2023-04-21T13:40:23.843Z,19.38
2023-04-21T13:45:55.842Z,19.42
2023-04-21T13:51:27.612Z,19.22
2023-04-21T13:56:58.999Z,19.21
2023-04-21T14:02:31.437Z,19.37
2023-04-21T14:08:08.891Z,19.36
2023-04-21T14:13:48.020Z,19.67
2023-04-21T14:19:12.380Z,19.63
2023-04-21T14:24:44.248Z,19.87
2023-04-21T14:30:15.986Z,19.77
2023-04-21T14:35:47.827Z,19.82
2023-04-21T14:41:19.239Z,19.72
2023-04-21T14:47:01.348Z,20.01
2023-04-21T14:52:23.431Z,20.02
2023-04-21T14:57:54.620Z,20.14
2023-04-21T15:03:26.762Z,20.14
2023-04-21T15:09:04.499Z,20.43
2023-04-21T15:14:36.187Z,20.38
2023-04-21T15:20:07.938Z,20.41
2023-04-21T15:25:40.056Z,20.34
2023-04-21T15:31:11.413Z,20.3
2023-04-21T15:36:42.843Z,20.16
2023-04-21T15:42:14.903Z,20.06
2023-04-21T15:47:46.546Z,19.9
2023-04-21T15:53:20.053Z,19.84
2023-04-21T15:58:49.715Z,19.56
2023-04-21T16:04:21.577Z,19.45
2023-04-21T16:09:59.897Z,19.64
2023-04-21T16:15:31.324Z,19.77
2023-04-21T16:21:03.028Z,19.57
2023-04-21T16:26:35.028Z,19.53
2023-04-21T16:32:06.616Z,19.53
2023-04-21T16:37:38.513Z,19.35
2023-04-21T16:43:10.159Z,19.36
2023-04-21T16:48:42.461Z,19.3
2023-04-21T16:54:13.367Z,19.15
2023-04-21T16:59:45.069Z,19.06
2023-04-21T17:05:16.801Z,18.89
2023-04-21T17:10:54.949Z,18.66
2023-04-21T17:16:26.679Z,18.66
2023-04-21T17:21:59.266Z,18.41
2023-04-21T17:27:30.726Z,18.34
2023-04-21T17:33:15.184Z,18.28
2023-04-21T17:38:33.775Z,18.04
2023-04-21T17:44:05.270Z,18.07
2023-04-21T17:49:37.105Z,18.12
2023-04-21T17:55:09.170Z,18.14
2023-04-21T18:00:40.447Z,17.93
2023-04-21T18:06:12.181Z,18.26
2023-04-21T18:11:48.318Z,18.34
2023-04-21T18:17:20.327Z,18.26
2023-04-21T18:22:52.300Z,17.96
2023-04-21T18:28:23.455Z,17.82
2023-04-21T18:33:55.170Z,17.65
2023-04-21T18:39:26.897Z,17.38
2023-04-21T18:44:59.575Z,17.15
2023-04-21T18:50:30.570Z,16.98
2023-04-21T18:56:02.046Z,16.85
2023-04-21T19:01:33.960Z,16.82
2023-04-21T19:07:05.752Z,16.66
2023-04-21T19:12:41.624Z,16.59
2023-04-21T19:18:13.385Z,16.49
2023-04-21T19:23:45.331Z,16.3
2023-04-21T19:29:16.842Z,16.34
2023-04-21T19:34:48.499Z,16.32
2023-04-21T19:40:20.485Z,16.24
2023-04-21T19:45:51.994Z,16.26
2023-04-21T19:51:23.707Z,16.29
2023-04-21T19:56:55.448Z,16.33
2023-04-21T20:02:27.749Z,16.32
2023-04-21T20:07:58.886Z,16.25
2023-04-21T20:13:37.344Z,16.2
2023-04-21T20:19:08.982Z,16.03
2023-04-21T20:24:40.551Z,16.15
2023-04-21T20:30:12.203Z,16.14
2023-04-21T20:35:44.155Z,16.21
2023-04-21T20:41:15.852Z,16.16
2023-04-21T20:46:47.369Z,16.16
2023-04-21T20:52:19.019Z,16.17
2023-04-21T20:57:50.983Z,16.2
2023-04-21T21:03:23.596Z,16.05
2023-04-21T21:08:54.149Z,16.05
2023-04-21T21:14:32.586Z,16.01
2023-04-21T21:20:04.320Z,15.98
2023-04-21T21:25:36.035Z,15.95
2023-04-21T21:31:07.821Z,15.82
2023-04-21T21:36:39.252Z,15.83
2023-04-21T21:42:11.489Z,15.81
2023-04-21T21:47:45.014Z,15.75
2023-04-21T21:53:14.427Z,15.65
2023-04-21T21:58:46.895Z,15.54
2023-04-21T22:04:17.917Z,15.56
2023-04-21T22:09:49.807Z,15.47
2023-04-21T22:15:25.941Z,15.36
2023-04-21T22:20:57.687Z,15.32
2023-04-21T22:26:29.434Z,15.3
2023-04-21T22:32:00.911Z,15.26
2023-04-21T22:37:32.606Z,15.17
2023-04-21T22:43:04.535Z,15.16
2023-04-21T22:48:36.286Z,15.13
2023-04-21T22:54:07.775Z,15.1
2023-04-21T22:59:39.694Z,15.06
2023-04-21T23:05:11.204Z,14.96
2023-04-21T23:10:43.155Z,14.9
2023-04-21T23:16:19.307Z,14.83
2023-04-21T23:21:50.989Z,14.92
2023-04-21T23:27:22.461Z,14.95
2023-04-21T23:32:54.447Z,14.99
2023-04-21T23:38:26.192Z,14.98
2023-04-21T23:43:57.640Z,14.85
2023-04-21T23:49:29.816Z,14.85
2023-04-21T23:55:01.154Z,14.78
